sensor_id;sensor_type;location;lat;lon;timestamp;pressure;altitude;pressure_sealevel;temperature;humidity
65872;BME280;52653;50.080;21.992;2022-07-23T00:00:27;99155.27;;;21.33;73.84
65872;BME280;52653;50.080;21.992;2022-07-23T00:03:13;99150.73;;;21.28;73.96
65872;BME280;52653;50.080;21.992;2022-07-23T00:06:07;99152.75;;;21.23;74.16
65872;BME280;52653;50.080;21.992;2022-07-23T00:08:40;99147.10;;;21.19;74.39
65872;BME280;52653;50.080;21.992;2022-07-23T00:11:13;99149.98;;;21.18;74.22
65872;BME280;52653;50.080;21.992;2022-07-23T00:13:45;99152.10;;;21.18;74.63
65872;BME280;52653;50.080;21.992;2022-07-23T00:16:22;99151.34;;;21.19;74.44
65872;BME280;52653;50.080;21.992;2022-07-23T00:19:15;99155.86;;;21.14;74.42
65872;BME280;52653;50.080;21.992;2022-07-23T00:21:47;99157.26;;;21.08;74.55
65872;BME280;52653;50.080;21.992;2022-07-23T00:24:31;99157.48;;;21.04;74.73
65872;BME280;52653;50.080;21.992;2022-07-23T00:27:13;99155.36;;;21.00;74.76
65872;BME280;52653;50.080;21.992;2022-07-23T00:29:48;99153.06;;;20.96;74.35
65872;BME280;52653;50.080;21.992;2022-07-23T00:32:24;99151.80;;;20.93;74.44
65872;BME280;52653;50.080;21.992;2022-07-23T00:35:19;99157.73;;;20.89;74.66
65872;BME280;52653;50.080;21.992;2022-07-23T00:37:54;99155.34;;;20.86;74.60
65872;BME280;52653;50.080;21.992;2022-07-23T00:40:32;99155.94;;;20.85;74.41
65872;BME280;52653;50.080;21.992;2022-07-23T00:43:15;99153.30;;;20.84;74.50
65872;BME280;52653;50.080;21.992;2022-07-23T00:45:57;99155.25;;;20.81;74.37
65872;BME280;52653;50.080;21.992;2022-07-23T00:48:30;99159.65;;;20.75;74.41
65872;BME280;52653;50.080;21.992;2022-07-23T00:51:17;99157.50;;;20.68;74.85
65872;BME280;52653;50.080;21.992;2022-07-23T00:53:52;99155.70;;;20.62;74.79
65872;BME280;52653;50.080;21.992;2022-07-23T00:56:36;99160.38;;;20.57;74.94
65872;BME280;52653;50.080;21.992;2022-07-23T00:59:14;99164.27;;;20.53;75.50
65872;BME280;52653;50.080;21.992;2022-07-23T01:02:06;99164.70;;;20.52;75.56
65872;BME280;52653;50.080;21.992;2022-07-23T01:04:47;99164.23;;;20.51;75.32
65872;BME280;52653;50.080;21.992;2022-07-23T01:07:21;99162.97;;;20.48;75.39
65872;BME280;52653;50.080;21.992;2022-07-23T01:10:00;99166.09;;;20.46;75.47
65872;BME280;52653;50.080;21.992;2022-07-23T01:12:36;99167.89;;;20.41;75.96
65872;BME280;52653;50.080;21.992;2022-07-23T01:15:11;99168.98;;;20.37;76.25
65872;BME280;52653;50.080;21.992;2022-07-23T01:17:43;99172.48;;;20.35;75.64
65872;BME280;52653;50.080;21.992;2022-07-23T01:20:36;99174.27;;;20.31;76.10
65872;BME280;52653;50.080;21.992;2022-07-23T01:23:20;99175.65;;;20.28;76.14
65872;BME280;52653;50.080;21.992;2022-07-23T01:26:00;99173.42;;;20.26;76.12
65872;BME280;52653;50.080;21.992;2022-07-23T01:28:33;99168.50;;;20.25;76.11
65872;BME280;52653;50.080;21.992;2022-07-23T01:31:16;99166.50;;;20.26;75.96
65872;BME280;52653;50.080;21.992;2022-07-23T01:33:58;99161.41;;;20.28;75.99
65872;BME280;52653;50.080;21.992;2022-07-23T01:36:31;99158.66;;;20.29;75.82
65872;BME280;52653;50.080;21.992;2022-07-23T01:39:18;99157.55;;;20.30;75.77
65872;BME280;52653;50.080;21.992;2022-07-23T01:41:53;99164.17;;;20.26;75.96
65872;BME280;52653;50.080;21.992;2022-07-23T01:44:27;99170.31;;;20.17;75.88
65872;BME280;52653;50.080;21.992;2022-07-23T01:47:03;99167.17;;;20.08;75.61
65872;BME280;52653;50.080;21.992;2022-07-23T01:49:38;99168.09;;;20.07;75.67
65872;BME280;52653;50.080;21.992;2022-07-23T01:52:26;99164.44;;;20.09;75.75
65872;BME280;52653;50.080;21.992;2022-07-23T01:55:18;99160.59;;;20.11;75.45
65872;BME280;52653;50.080;21.992;2022-07-23T01:57:53;99157.42;;;20.14;75.85
65872;BME280;52653;50.080;21.992;2022-07-23T02:00:30;99160.77;;;20.15;75.91
65872;BME280;52653;50.080;21.992;2022-07-23T02:03:23;99164.12;;;20.12;75.73
65872;BME280;52653;50.080;21.992;2022-07-23T02:06:15;99165.56;;;20.08;75.70
65872;BME280;52653;50.080;21.992;2022-07-23T02:08:57;99162.44;;;20.06;75.89
65872;BME280;52653;50.080;21.992;2022-07-23T02:11:33;99158.48;;;20.03;75.39
65872;BME280;52653;50.080;21.992;2022-07-23T02:14:18;99153.31;;;19.96;75.82
65872;BME280;52653;50.080;21.992;2022-07-23T02:16:53;99150.58;;;19.86;76.17
65872;BME280;52653;50.080;21.992;2022-07-23T02:19:27;99154.55;;;19.80;76.48
65872;BME280;52653;50.080;21.992;2022-07-23T02:22:03;99155.20;;;19.78;76.16
65872;BME280;52653;50.080;21.992;2022-07-23T02:24:35;99161.77;;;19.75;76.24
65872;BME280;52653;50.080;21.992;2022-07-23T02:27:07;99163.17;;;19.72;76.44
65872;BME280;52653;50.080;21.992;2022-07-23T02:29:43;99166.73;;;19.72;76.61
65872;BME280;52653;50.080;21.992;2022-07-23T02:32:23;99167.25;;;19.72;76.64
65872;BME280;52653;50.080;21.992;2022-07-23T02:34:58;99166.64;;;19.73;76.84
65872;BME280;52653;50.080;21.992;2022-07-23T02:37:31;99165.54;;;19.74;76.74
65872;BME280;52653;50.080;21.992;2022-07-23T02:40:10;99166.63;;;19.74;76.47
65872;BME280;52653;50.080;21.992;2022-07-23T02:42:53;99165.89;;;19.71;76.60
65872;BME280;52653;50.080;21.992;2022-07-23T02:45:29;99164.60;;;19.67;76.52
65872;BME280;52653;50.080;21.992;2022-07-23T02:48:12;99166.80;;;19.66;76.80
65872;BME280;52653;50.080;21.992;2022-07-23T02:50:48;99165.56;;;19.65;76.96
65872;BME280;52653;50.080;21.992;2022-07-23T02:53:29;99165.63;;;19.67;76.73
65872;BME280;52653;50.080;21.992;2022-07-23T02:56:02;99162.71;;;19.70;76.62
65872;BME280;52653;50.080;21.992;2022-07-23T02:58:34;99160.21;;;19.70;76.73
65872;BME280;52653;50.080;21.992;2022-07-23T03:01:27;99164.06;;;19.72;76.84
65872;BME280;52653;50.080;21.992;2022-07-23T03:04:03;99168.38;;;19.74;76.80
65872;BME280;52653;50.080;21.992;2022-07-23T03:06:35;99170.45;;;19.76;76.76
65872;BME280;52653;50.080;21.992;2022-07-23T03:09:10;99172.67;;;19.78;76.88
65872;BME280;52653;50.080;21.992;2022-07-23T03:12:03;99171.17;;;19.79;77.02
65872;BME280;52653;50.080;21.992;2022-07-23T03:15:03;99171.10;;;19.81;76.80
65872;BME280;52653;50.080;21.992;2022-07-23T03:17:45;99170.11;;;19.83;76.83
65872;BME280;52653;50.080;21.992;2022-07-23T03:20:17;99167.30;;;19.86;76.61
65872;BME280;52653;50.080;21.992;2022-07-23T03:22:58;99168.07;;;19.89;76.38
65872;BME280;52653;50.080;21.992;2022-07-23T03:25:33;99167.65;;;19.90;76.60
65872;BME280;52653;50.080;21.992;2022-07-23T03:28:11;99170.78;;;19.91;76.73
65872;BME280;52653;50.080;21.992;2022-07-23T03:30:43;99171.15;;;19.95;76.68
65872;BME280;52653;50.080;21.992;2022-07-23T03:33:18;99170.17;;;20.01;76.39
65872;BME280;52653;50.080;21.992;2022-07-23T03:35:51;99170.76;;;20.07;76.61
65872;BME280;52653;50.080;21.992;2022-07-23T03:38:39;99170.34;;;20.13;76.27
65872;BME280;52653;50.080;21.992;2022-07-23T03:41:13;99172.15;;;20.23;76.31
65872;BME280;52653;50.080;21.992;2022-07-23T03:43:58;99173.17;;;20.35;76.02
65872;BME280;52653;50.080;21.992;2022-07-23T03:46:40;99175.67;;;20.50;75.72
65872;BME280;52653;50.080;21.992;2022-07-23T03:49:21;99174.04;;;20.65;75.23
65872;BME280;52653;50.080;21.992;2022-07-23T03:51:53;99175.39;;;20.77;75.06
65872;BME280;52653;50.080;21.992;2022-07-23T03:54:27;99172.25;;;20.84;74.25
65872;BME280;52653;50.080;21.992;2022-07-23T03:57:12;99166.25;;;20.89;74.15
65872;BME280;52653;50.080;21.992;2022-07-23T03:59:48;99165.91;;;20.96;73.61
65872;BME280;52653;50.080;21.992;2022-07-23T04:02:23;99168.58;;;21.00;73.65
65872;BME280;52653;50.080;21.992;2022-07-23T04:04:58;99168.98;;;21.02;73.81
65872;BME280;52653;50.080;21.992;2022-07-23T04:07:33;99170.34;;;21.06;73.39
65872;BME280;52653;50.080;21.992;2022-07-23T04:10:10;99167.55;;;21.12;73.45
65872;BME280;52653;50.080;21.992;2022-07-23T04:12:45;99167.92;;;21.23;73.36
65872;BME280;52653;50.080;21.992;2022-07-23T04:15:28;99167.65;;;21.39;73.38
65872;BME280;52653;50.080;21.992;2022-07-23T04:18:01;99167.84;;;21.55;73.13
65872;BME280;52653;50.080;21.992;2022-07-23T04:20:41;99171.39;;;21.72;72.38
65872;BME280;52653;50.080;21.992;2022-07-23T04:23:13;99170.60;;;21.87;71.18
65872;BME280;52653;50.080;21.992;2022-07-23T04:25:49;99172.16;;;21.98;70.66
65872;BME280;52653;50.080;21.992;2022-07-23T04:28:21;99176.59;;;22.12;70.59
65872;BME280;52653;50.080;21.992;2022-07-23T04:30:58;99174.17;;;22.29;70.31
65872;BME280;52653;50.080;21.992;2022-07-23T04:33:51;99170.84;;;22.47;69.75
65872;BME280;52653;50.080;21.992;2022-07-23T04:36:25;99170.25;;;22.67;68.97
65872;BME280;52653;50.080;21.992;2022-07-23T04:38:58;99169.77;;;22.85;68.48
65872;BME280;52653;50.080;21.992;2022-07-23T04:41:32;99169.10;;;23.03;67.62
65872;BME280;52653;50.080;21.992;2022-07-23T04:44:25;99171.24;;;23.14;66.80
65872;BME280;52653;50.080;21.992;2022-07-23T04:47:01;99180.77;;;23.37;65.95
65872;BME280;52653;50.080;21.992;2022-07-23T04:49:33;99181.95;;;23.80;65.83
65872;BME280;52653;50.080;21.992;2022-07-23T04:52:08;99183.95;;;24.33;64.99
65872;BME280;52653;50.080;21.992;2022-07-23T04:54:52;99185.08;;;24.92;63.05
65872;BME280;52653;50.080;21.992;2022-07-23T04:57:48;99180.56;;;25.56;61.50
65872;BME280;52653;50.080;21.992;2022-07-23T05:00:23;99175.05;;;26.06;59.46
65872;BME280;52653;50.080;21.992;2022-07-23T05:02:57;99172.52;;;26.54;58.49
65872;BME280;52653;50.080;21.992;2022-07-23T05:05:46;99174.14;;;27.04;57.47
65872;BME280;52653;50.080;21.992;2022-07-23T05:08:31;99172.08;;;27.50;56.43
65872;BME280;52653;50.080;21.992;2022-07-23T05:11:15;99171.13;;;27.87;55.23
65872;BME280;52653;50.080;21.992;2022-07-23T05:13:56;99172.64;;;27.98;54.16
65872;BME280;52653;50.080;21.992;2022-07-23T05:16:32;99178.68;;;27.99;53.43
65872;BME280;52653;50.080;21.992;2022-07-23T05:19:07;99171.23;;;28.08;53.32
65872;BME280;52653;50.080;21.992;2022-07-23T05:21:42;99167.29;;;28.28;52.58
65872;BME280;52653;50.080;21.992;2022-07-23T05:24:14;99169.65;;;28.26;51.96
65872;BME280;52653;50.080;21.992;2022-07-23T05:26:56;99173.29;;;28.01;51.63
65872;BME280;52653;50.080;21.992;2022-07-23T05:29:31;99172.35;;;27.65;52.23
65872;BME280;52653;50.080;21.992;2022-07-23T05:32:07;99172.83;;;27.45;52.69
65872;BME280;52653;50.080;21.992;2022-07-23T05:34:48;99170.23;;;27.27;52.89
65872;BME280;52653;50.080;21.992;2022-07-23T05:37:21;99170.94;;;27.09;53.32
65872;BME280;52653;50.080;21.992;2022-07-23T05:39:55;99169.52;;;26.98;53.45
65872;BME280;52653;50.080;21.992;2022-07-23T05:42:41;99171.27;;;26.99;54.62
65872;BME280;52653;50.080;21.992;2022-07-23T05:45:15;99168.84;;;27.08;54.50
65872;BME280;52653;50.080;21.992;2022-07-23T05:47:49;99162.02;;;27.08;54.21
65872;BME280;52653;50.080;21.992;2022-07-23T05:50:31;99164.83;;;27.09;54.30
65872;BME280;52653;50.080;21.992;2022-07-23T05:53:09;99161.70;;;27.09;54.53
65872;BME280;52653;50.080;21.992;2022-07-23T05:56:03;99167.53;;;27.13;54.63
65872;BME280;52653;50.080;21.992;2022-07-23T05:58:35;99164.90;;;27.14;54.82
65872;BME280;52653;50.080;21.992;2022-07-23T06:01:07;99167.70;;;27.21;54.94
65872;BME280;52653;50.080;21.992;2022-07-23T06:03:46;99170.91;;;27.35;55.67
65872;BME280;52653;50.080;21.992;2022-07-23T06:06:22;99167.16;;;27.53;55.25
65872;BME280;52653;50.080;21.992;2022-07-23T06:08:57;99167.80;;;27.68;55.17
65872;BME280;52653;50.080;21.992;2022-07-23T06:11:32;99168.77;;;27.85;54.91
65872;BME280;52653;50.080;21.992;2022-07-23T06:14:04;99163.38;;;28.01;54.41
65872;BME280;52653;50.080;21.992;2022-07-23T06:16:50;99157.38;;;28.10;53.92
65872;BME280;52653;50.080;21.992;2022-07-23T06:19:22;99157.69;;;28.20;53.97
65872;BME280;52653;50.080;21.992;2022-07-23T06:21:54;99153.56;;;28.26;53.59
65872;BME280;52653;50.080;21.992;2022-07-23T06:24:26;99152.85;;;28.37;53.66
65872;BME280;52653;50.080;21.992;2022-07-23T06:26:58;99151.23;;;28.57;53.72
65872;BME280;52653;50.080;21.992;2022-07-23T06:29:30;99152.48;;;28.72;52.57
65872;BME280;52653;50.080;21.992;2022-07-23T06:32:05;99156.09;;;28.92;52.59
65872;BME280;52653;50.080;21.992;2022-07-23T06:34:48;99153.87;;;29.14;52.48
65872;BME280;52653;50.080;21.992;2022-07-23T06:37:24;99149.94;;;29.34;52.12
65872;BME280;52653;50.080;21.992;2022-07-23T06:39:59;99151.96;;;29.51;51.57
65872;BME280;52653;50.080;21.992;2022-07-23T06:42:38;99153.67;;;29.68;51.29
65872;BME280;52653;50.080;21.992;2022-07-23T06:45:15;99157.94;;;29.81;50.97
65872;BME280;52653;50.080;21.992;2022-07-23T06:47:47;99161.39;;;29.83;51.15
65872;BME280;52653;50.080;21.992;2022-07-23T06:50:30;99159.50;;;29.86;50.75
65872;BME280;52653;50.080;21.992;2022-07-23T06:53:24;99158.20;;;29.97;50.94
65872;BME280;52653;50.080;21.992;2022-07-23T06:55:58;99155.78;;;30.15;50.45
65872;BME280;52653;50.080;21.992;2022-07-23T06:58:50;99154.58;;;30.26;50.05
65872;BME280;52653;50.080;21.992;2022-07-23T07:01:23;99156.09;;;30.39;50.12
65872;BME280;52653;50.080;21.992;2022-07-23T07:03:57;99150.65;;;30.57;50.15
65872;BME280;52653;50.080;21.992;2022-07-23T07:06:39;99150.71;;;30.74;49.86
65872;BME280;52653;50.080;21.992;2022-07-23T07:09:11;99151.84;;;30.90;48.89
65872;BME280;52653;50.080;21.992;2022-07-23T07:11:46;99148.41;;;30.93;48.20
65872;BME280;52653;50.080;21.992;2022-07-23T07:14:21;99141.93;;;30.97;48.34
65872;BME280;52653;50.080;21.992;2022-07-23T07:16:55;99137.89;;;30.92;47.89
65872;BME280;52653;50.080;21.992;2022-07-23T07:19:38;99137.66;;;30.88;48.14
65872;BME280;52653;50.080;21.992;2022-07-23T07:22:31;99138.50;;;30.81;47.98
65872;BME280;52653;50.080;21.992;2022-07-23T07:25:03;99135.40;;;30.71;48.66
65872;BME280;52653;50.080;21.992;2022-07-23T07:27:35;99134.45;;;30.76;48.87
65872;BME280;52653;50.080;21.992;2022-07-23T07:30:28;99134.03;;;30.84;48.46
65872;BME280;52653;50.080;21.992;2022-07-23T07:33:24;99131.39;;;30.91;48.72
65872;BME280;52653;50.080;21.992;2022-07-23T07:36:07;99133.98;;;31.00;49.07
65872;BME280;52653;50.080;21.992;2022-07-23T07:38:39;99134.25;;;31.13;48.54
65872;BME280;52653;50.080;21.992;2022-07-23T07:41:14;99130.17;;;31.08;47.69
65872;BME280;52653;50.080;21.992;2022-07-23T07:43:48;99130.84;;;31.07;48.13
65872;BME280;52653;50.080;21.992;2022-07-23T07:46:21;99130.74;;;31.12;48.11
65872;BME280;52653;50.080;21.992;2022-07-23T07:48:57;99128.59;;;31.16;48.41
65872;BME280;52653;50.080;21.992;2022-07-23T07:51:33;99131.55;;;31.25;48.72
65872;BME280;52653;50.080;21.992;2022-07-23T07:54:08;99129.41;;;31.34;48.18
65872;BME280;52653;50.080;21.992;2022-07-23T07:56:43;99133.00;;;31.40;48.00
65872;BME280;52653;50.080;21.992;2022-07-23T07:59:22;99134.77;;;31.48;48.14
65872;BME280;52653;50.080;21.992;2022-07-23T08:01:57;99131.34;;;31.57;47.92
65872;BME280;52653;50.080;21.992;2022-07-23T08:04:31;99129.72;;;31.66;47.91
65872;BME280;52653;50.080;21.992;2022-07-23T08:07:06;99128.58;;;31.82;47.87
65872;BME280;52653;50.080;21.992;2022-07-23T08:09:38;99127.31;;;31.93;47.21
65872;BME280;52653;50.080;21.992;2022-07-23T08:12:10;99123.83;;;32.03;46.84
65872;BME280;52653;50.080;21.992;2022-07-23T08:14:42;99124.79;;;32.11;46.18
65872;BME280;52653;50.080;21.992;2022-07-23T08:17:15;99125.40;;;32.18;45.85
65872;BME280;52653;50.080;21.992;2022-07-23T08:19:47;99125.91;;;32.22;45.60
65872;BME280;52653;50.080;21.992;2022-07-23T08:22:19;99128.86;;;32.33;45.85
65872;BME280;52653;50.080;21.992;2022-07-23T08:24:51;99130.01;;;32.45;45.52
65872;BME280;52653;50.080;21.992;2022-07-23T08:27:23;99129.89;;;32.54;45.04
65872;BME280;52653;50.080;21.992;2022-07-23T08:29:55;99124.75;;;32.63;44.82
65872;BME280;52653;50.080;21.992;2022-07-23T08:32:30;99124.10;;;32.66;44.19
65872;BME280;52653;50.080;21.992;2022-07-23T08:35:26;99124.23;;;32.70;43.58
65872;BME280;52653;50.080;21.992;2022-07-23T08:38:09;99122.19;;;32.72;43.36
65872;BME280;52653;50.080;21.992;2022-07-23T08:40:43;99122.89;;;32.67;42.60
65872;BME280;52653;50.080;21.992;2022-07-23T08:43:18;99126.13;;;32.62;42.60
65872;BME280;52653;50.080;21.992;2022-07-23T08:45:53;99121.77;;;32.69;43.38
65872;BME280;52653;50.080;21.992;2022-07-23T08:48:31;99123.85;;;32.83;42.67
65872;BME280;52653;50.080;21.992;2022-07-23T08:51:04;99122.82;;;32.92;42.50
65872;BME280;52653;50.080;21.992;2022-07-23T08:53:37;99121.09;;;33.01;41.63
65872;BME280;52653;50.080;21.992;2022-07-23T08:56:11;99115.38;;;33.11;41.27
65872;BME280;52653;50.080;21.992;2022-07-23T08:58:45;99113.70;;;33.17;41.00
65872;BME280;52653;50.080;21.992;2022-07-23T09:01:17;99113.70;;;33.25;41.00
65872;BME280;52653;50.080;21.992;2022-07-23T09:03:52;99108.70;;;33.30;39.83
65872;BME280;52653;50.080;21.992;2022-07-23T09:06:45;99103.89;;;33.40;40.00
65872;BME280;52653;50.080;21.992;2022-07-23T09:09:28;99103.81;;;33.49;40.10
65872;BME280;52653;50.080;21.992;2022-07-23T09:12:12;99098.77;;;33.55;39.81
65872;BME280;52653;50.080;21.992;2022-07-23T09:14:48;99095.89;;;33.69;39.13
65872;BME280;52653;50.080;21.992;2022-07-23T09:17:38;99091.76;;;33.74;37.80
65872;BME280;52653;50.080;21.992;2022-07-23T09:20:13;99088.21;;;33.81;37.75
65872;BME280;52653;50.080;21.992;2022-07-23T09:22:47;99086.81;;;33.89;37.37
65872;BME280;52653;50.080;21.992;2022-07-23T09:25:20;99082.82;;;33.89;37.25
65872;BME280;52653;50.080;21.992;2022-07-23T09:27:55;99082.41;;;33.91;36.88
65872;BME280;52653;50.080;21.992;2022-07-23T09:30:29;99083.82;;;33.85;35.74
65872;BME280;52653;50.080;21.992;2022-07-23T09:33:13;99080.77;;;33.73;36.22
65872;BME280;52653;50.080;21.992;2022-07-23T09:35:48;99073.84;;;33.73;36.14
65872;BME280;52653;50.080;21.992;2022-07-23T09:38:21;99068.70;;;33.76;35.56
65872;BME280;52653;50.080;21.992;2022-07-23T09:41:08;99064.08;;;33.74;34.92
65872;BME280;52653;50.080;21.992;2022-07-23T09:43:40;99065.48;;;33.73;35.50
65872;BME280;52653;50.080;21.992;2022-07-23T09:46:24;99064.29;;;33.74;35.21
65872;BME280;52653;50.080;21.992;2022-07-23T09:49:16;99061.67;;;33.62;35.63
65872;BME280;52653;50.080;21.992;2022-07-23T09:51:54;99066.60;;;33.72;36.93
65872;BME280;52653;50.080;21.992;2022-07-23T09:54:30;99063.24;;;33.92;36.06
65872;BME280;52653;50.080;21.992;2022-07-23T09:57:05;99068.13;;;34.09;35.59
65872;BME280;52653;50.080;21.992;2022-07-23T09:59:43;99065.83;;;34.31;35.85
65872;BME280;52653;50.080;21.992;2022-07-23T10:02:17;99061.78;;;34.46;35.60
65872;BME280;52653;50.080;21.992;2022-07-23T10:05:17;99066.61;;;34.59;35.53
65872;BME280;52653;50.080;21.992;2022-07-23T10:08:05;99069.34;;;34.70;33.58
65872;BME280;52653;50.080;21.992;2022-07-23T10:11:02;99063.37;;;34.80;33.43
65872;BME280;52653;50.080;21.992;2022-07-23T10:13:57;99062.27;;;34.88;33.57
65872;BME280;52653;50.080;21.992;2022-07-23T10:16:39;99065.48;;;35.00;33.61
65872;BME280;52653;50.080;21.992;2022-07-23T10:19:14;99066.30;;;35.01;32.88
65872;BME280;52653;50.080;21.992;2022-07-23T10:21:48;99063.94;;;34.96;33.31
65872;BME280;52653;50.080;21.992;2022-07-23T10:24:24;99067.72;;;34.98;33.27
65872;BME280;52653;50.080;21.992;2022-07-23T10:27:09;99065.02;;;34.99;32.95
65872;BME280;52653;50.080;21.992;2022-07-23T10:29:50;99065.45;;;34.91;33.28
65872;BME280;52653;50.080;21.992;2022-07-23T10:32:40;99059.47;;;34.95;33.11
65872;BME280;52653;50.080;21.992;2022-07-23T10:35:29;99058.85;;;35.10;33.10
65872;BME280;52653;50.080;21.992;2022-07-23T10:38:06;99054.83;;;35.28;33.31
65872;BME280;52653;50.080;21.992;2022-07-23T10:40:54;99053.95;;;35.44;33.49
65872;BME280;52653;50.080;21.992;2022-07-23T10:43:27;99044.85;;;35.58;33.10
65872;BME280;52653;50.080;21.992;2022-07-23T10:46:24;99047.04;;;35.69;32.81
65872;BME280;52653;50.080;21.992;2022-07-23T10:49:27;99047.11;;;35.75;31.56
65872;BME280;52653;50.080;21.992;2022-07-23T10:52:20;99051.75;;;35.79;31.52
65872;BME280;52653;50.080;21.992;2022-07-23T10:58:18;99051.10;;;35.77;31.84
65872;BME280;52653;50.080;21.992;2022-07-23T11:00:55;99049.57;;;35.78;31.56
65872;BME280;52653;50.080;21.992;2022-07-23T11:03:34;99050.89;;;35.61;30.53
65872;BME280;52653;50.080;21.992;2022-07-23T11:06:12;99052.38;;;35.47;30.37
65872;BME280;52653;50.080;21.992;2022-07-23T11:09:27;99050.28;;;35.38;30.30
65872;BME280;52653;50.080;21.992;2022-07-23T11:12:36;99051.41;;;35.38;30.84
65872;BME280;52653;50.080;21.992;2022-07-23T11:15:18;99046.73;;;35.61;31.07
65872;BME280;52653;50.080;21.992;2022-07-23T11:18:02;99043.55;;;35.75;30.50
65872;BME280;52653;50.080;21.992;2022-07-23T11:20:37;99037.75;;;35.82;29.38
65872;BME280;52653;50.080;21.992;2022-07-23T11:23:09;99035.62;;;35.93;29.46
65872;BME280;52653;50.080;21.992;2022-07-23T11:25:41;99034.34;;;36.13;30.48
65872;BME280;52653;50.080;21.992;2022-07-23T11:28:35;99025.25;;;36.30;29.78
65872;BME280;52653;50.080;21.992;2022-07-23T11:31:18;99020.02;;;36.45;29.79
65872;BME280;52653;50.080;21.992;2022-07-23T11:34:28;99018.05;;;36.53;28.86
65872;BME280;52653;50.080;21.992;2022-07-23T11:37:05;99017.60;;;36.65;29.56
65872;BME280;52653;50.080;21.992;2022-07-23T11:39:38;99017.27;;;36.77;30.16
65872;BME280;52653;50.080;21.992;2022-07-23T11:42:21;99012.73;;;36.92;29.59
65872;BME280;52653;50.080;21.992;2022-07-23T11:45:21;99004.96;;;36.91;27.86
65872;BME280;52653;50.080;21.992;2022-07-23T11:48:19;99004.69;;;36.89;29.10
65872;BME280;52653;50.080;21.992;2022-07-23T11:51:26;99000.05;;;36.93;28.51
65872;BME280;52653;50.080;21.992;2022-07-23T11:54:06;98996.21;;;36.87;27.96
65872;BME280;52653;50.080;21.992;2022-07-23T11:56:57;98992.86;;;36.82;27.32
65872;BME280;52653;50.080;21.992;2022-07-23T11:59:52;98992.29;;;36.76;26.95
65872;BME280;52653;50.080;21.992;2022-07-23T12:02:36;98986.59;;;36.55;27.03
65872;BME280;52653;50.080;21.992;2022-07-23T12:05:12;98985.11;;;36.46;27.60
65872;BME280;52653;50.080;21.992;2022-07-23T12:07:48;98983.92;;;36.50;27.81
65872;BME280;52653;50.080;21.992;2022-07-23T12:10:43;98975.26;;;36.58;28.11
65872;BME280;52653;50.080;21.992;2022-07-23T12:13:35;98971.56;;;36.71;28.24
65872;BME280;52653;50.080;21.992;2022-07-23T12:16:28;98965.30;;;36.73;27.71
65872;BME280;52653;50.080;21.992;2022-07-23T12:19:21;98965.64;;;36.63;27.60
65872;BME280;52653;50.080;21.992;2022-07-23T12:21:56;98967.27;;;36.60;27.76
65872;BME280;52653;50.080;21.992;2022-07-23T12:24:31;98963.73;;;36.60;28.33
65872;BME280;52653;50.080;21.992;2022-07-23T12:27:26;98960.91;;;36.62;28.31
65872;BME280;52653;50.080;21.992;2022-07-23T12:29:59;98954.73;;;36.63;28.37
65872;BME280;52653;50.080;21.992;2022-07-23T12:32:31;98958.25;;;36.71;28.11
65872;BME280;52653;50.080;21.992;2022-07-23T12:35:08;98951.77;;;36.80;27.68
65872;BME280;52653;50.080;21.992;2022-07-23T12:37:44;98951.75;;;36.83;27.09
65872;BME280;52653;50.080;21.992;2022-07-23T12:40:29;98949.43;;;36.83;27.45
65872;BME280;52653;50.080;21.992;2022-07-23T12:43:23;98951.44;;;36.98;28.35
65872;BME280;52653;50.080;21.992;2022-07-23T12:45:57;98952.61;;;37.02;27.63
65872;BME280;52653;50.080;21.992;2022-07-23T12:48:30;98947.27;;;36.86;26.50
65872;BME280;52653;50.080;21.992;2022-07-23T12:51:04;98944.20;;;36.78;28.05
65872;BME280;52653;50.080;21.992;2022-07-23T12:53:41;98939.16;;;36.88;28.38
65872;BME280;52653;50.080;21.992;2022-07-23T12:56:14;98934.98;;;36.88;27.84
65872;BME280;52653;50.080;21.992;2022-07-23T12:59:10;98933.83;;;36.84;27.40
65872;BME280;52653;50.080;21.992;2022-07-23T13:01:45;98931.61;;;36.73;27.08
65872;BME280;52653;50.080;21.992;2022-07-23T13:04:22;98927.15;;;36.77;28.10
65872;BME280;52653;50.080;21.992;2022-07-23T13:06:58;98923.37;;;36.84;28.47
65872;BME280;52653;50.080;21.992;2022-07-23T13:09:35;98919.55;;;36.89;27.80
65872;BME280;52653;50.080;21.992;2022-07-23T13:12:12;98913.53;;;36.93;27.55
65872;BME280;52653;50.080;21.992;2022-07-23T13:14:44;98912.02;;;37.01;27.85
65872;BME280;52653;50.080;21.992;2022-07-23T13:17:16;98902.62;;;37.07;28.01
65872;BME280;52653;50.080;21.992;2022-07-23T13:19:50;98905.36;;;37.11;27.51
65872;BME280;52653;50.080;21.992;2022-07-23T13:22:24;98906.20;;;37.19;27.91
65872;BME280;52653;50.080;21.992;2022-07-23T13:24:56;98901.08;;;37.21;27.02
65872;BME280;52653;50.080;21.992;2022-07-23T13:27:30;98903.54;;;37.19;27.16
65872;BME280;52653;50.080;21.992;2022-07-23T13:30:11;98904.66;;;37.17;26.22
65872;BME280;52653;50.080;21.992;2022-07-23T13:32:45;98903.52;;;37.17;26.93
65872;BME280;52653;50.080;21.992;2022-07-23T13:35:18;98904.28;;;37.17;26.47
65872;BME280;52653;50.080;21.992;2022-07-23T13:37:51;98899.15;;;37.01;25.98
65872;BME280;52653;50.080;21.992;2022-07-23T13:40:23;98897.02;;;36.95;26.54
65872;BME280;52653;50.080;21.992;2022-07-23T13:42:55;98893.02;;;36.87;25.99
65872;BME280;52653;50.080;21.992;2022-07-23T13:45:27;98889.70;;;36.78;26.58
65872;BME280;52653;50.080;21.992;2022-07-23T13:47:59;98886.15;;;36.86;26.63
65872;BME280;52653;50.080;21.992;2022-07-23T13:50:34;98886.34;;;36.97;26.86
65872;BME280;52653;50.080;21.992;2022-07-23T13:53:08;98887.03;;;37.09;26.96
65872;BME280;52653;50.080;21.992;2022-07-23T13:55:41;98886.23;;;37.11;26.71